Time;durP1;ratioP1;P1;durP2;ratioP2;P2;SDS_P1;SDS_P2;PMS_P1;PMS_P2;Temp;Humidity;BMP_temperature;BMP_pressure;BME280_temperature;BME280_humidity;BME280_pressure;Samples;Min_cycle;Max_cycle;Signal;HPM_P1;HPM_P2
2023/10/02 00:01:20;;;;;;;14.60;5.05;;;;;;;25.85;52.03;102053.94;5011069;28;20099;-71
2023/10/02 00:03:48;;;;;;;13.75;5.53;;;;;;;25.86;51.63;102051.19;5009804;28;20030;-71
2023/10/02 00:06:18;;;;;;;14.45;5.38;;;;;;;26.17;50.99;102054.84;5011383;28;20041;-71
2023/10/02 00:08:48;;;;;;;18.40;5.80;;;;;;;25.86;52.05;102048.50;5011711;28;20041;-71
2023/10/02 00:11:36;;;;;;;14.73;5.65;;;;;;;26.12;50.79;102048.00;5013081;28;20437;-71
2023/10/02 00:14:25;;;;;;;13.25;5.15;;;;;;;26.95;48.75;102045.00;5011415;28;20478;-73
2023/10/02 00:16:59;;;;;;;11.52;5.35;;;;;;;26.91;48.03;102055.94;5011352;28;20108;-71
2023/10/02 00:19:40;;;;;;;13.45;5.47;;;;;;;26.31;49.93;102050.50;5012689;28;20498;-71
2023/10/02 00:22:34;;;;;;;10.20;4.82;;;;;;;26.26;49.72;102047.25;5011665;28;20023;-71
2023/10/02 00:24:57;;;;;;;14.85;5.60;;;;;;;26.53;49.61;102036.69;5029654;28;20057;-71
2023/10/02 00:27:23;;;;;;;15.00;5.53;;;;;;;26.70;48.81;102046.47;5031963;28;20040;-71
2023/10/02 00:29:53;;;;;;;15.30;5.38;;;;;;;27.04;48.23;102039.09;5031476;28;20025;-71
2023/10/02 00:32:26;;;;;;;14.55;5.75;;;;;;;26.59;49.10;102047.94;5032542;28;20495;-71
2023/10/02 00:34:52;;;;;;;11.27;4.93;;;;;;;26.84;48.66;102051.88;5028966;28;20061;-71
2023/10/02 00:37:18;;;;;;;16.38;6.68;;;;;;;26.81;48.59;102054.75;5031211;28;20448;-71
2023/10/02 00:39:52;;;;;;;15.23;5.05;;;;;;;26.88;48.33;102050.72;5030559;28;20108;-71
2023/10/02 00:42:24;;;;;;;15.05;5.10;;;;;;;26.89;48.08;102051.63;5032355;28;20490;-71
2023/10/02 00:44:56;;;;;;;13.50;5.63;;;;;;;26.43;49.11;102055.16;5031537;28;20017;-71
2023/10/02 00:47:44;;;;;;;17.08;5.72;;;;;;;26.56;49.02;102049.94;5030314;28;20452;-71
2023/10/02 00:50:19;;;;;;;12.00;5.18;;;;;;;26.48;48.93;102047.72;5028746;28;20094;-71
2023/10/02 00:52:51;;;;;;;10.80;5.10;;;;;;;26.54;48.78;102047.38;5009404;28;20045;-71
2023/10/02 00:55:32;;;;;;;13.43;6.03;;;;;;;26.66;48.37;102044.91;5011868;28;20029;-71
2023/10/02 00:57:59;;;;;;;12.95;5.43;;;;;;;26.72;48.41;102050.81;5007652;28;20093;-71
2023/10/02 01:00:35;;;;;;;14.93;5.68;;;;;;;26.40;49.08;102049.97;5013779;28;20119;-71
2023/10/02 01:03:01;;;;;;;16.00;5.35;;;;;;;26.51;48.73;102052.88;5011442;28;20493;-72
2023/10/02 01:05:41;;;;;;;13.70;5.40;;;;;;;26.17;49.54;102052.19;5010862;28;20386;-72
2023/10/02 01:08:49;;;;;;;16.27;5.50;;;;;;;26.07;49.57;102048.28;5010744;28;20029;-71
2023/10/02 01:11:14;;;;;;;11.77;5.40;;;;;;;26.01;49.81;102038.75;5030181;28;20496;-71
2023/10/02 01:13:40;;;;;;;18.92;6.82;;;;;;;26.27;49.12;102027.50;5031689;28;20072;-71
2023/10/02 01:16:08;;;;;;;10.18;4.70;;;;;;;25.73;50.60;102036.72;5026565;28;20560;-71
2023/10/02 01:18:35;;;;;;;14.25;5.50;;;;;;;26.29;49.18;102017.59;4998885;28;20018;-71
2023/10/02 01:21:11;;;;;;;18.38;5.22;;;;;;;25.71;50.81;102025.25;5025066;28;20025;-71
2023/10/02 01:24:09;;;;;;;14.50;5.60;;;;;;;25.59;50.80;102032.16;5013865;28;20060;-71
2023/10/02 01:26:41;;;;;;;12.30;5.25;;;;;;;26.14;49.37;102022.84;5027366;28;20026;-71
2023/10/02 01:29:10;;;;;;;12.75;5.93;;;;;;;26.34;49.17;102020.88;5030147;28;20454;-71
2023/10/02 01:31:42;;;;;;;11.80;4.93;;;;;;;26.15;49.72;102027.28;5031501;28;20544;-71
2023/10/02 01:34:10;;;;;;;15.38;5.82;;;;;;;25.84;50.29;102029.00;5011797;28;20025;-71
2023/10/02 01:36:39;;;;;;;13.15;5.65;;;;;;;26.18;49.44;102029.75;5031248;28;20032;-71
2023/10/02 01:39:14;;;;;;;11.38;5.20;;;;;;;26.02;49.97;102028.91;5011794;28;20044;-71
2023/10/02 01:41:41;;;;;;;14.32;5.95;;;;;;;25.94;49.83;102020.41;5023542;28;20094;-71
2023/10/02 01:44:10;;;;;;;16.30;5.88;;;;;;;26.02;50.11;102020.88;5028428;28;20030;-71
2023/10/02 01:46:37;;;;;;;16.15;6.30;;;;;;;26.15;48.99;102024.59;5013065;28;20032;-71
2023/10/02 01:49:02;;;;;;;15.35;5.03;;;;;;;26.14;49.51;102020.19;5028581;28;20030;-71
2023/10/02 01:51:31;;;;;;;16.58;5.00;;;;;;;26.11;49.60;102022.19;5012929;28;20405;-71
2023/10/02 01:53:58;;;;;;;18.17;5.78;;;;;;;25.79;50.27;102015.00;5013195;28;20021;-71
2023/10/02 01:56:29;;;;;;;15.38;5.90;;;;;;;26.16;49.08;102026.31;5012393;28;20028;-71
2023/10/02 01:59:08;;;;;;;14.30;6.18;;;;;;;25.61;50.16;102024.03;5017042;28;20041;-71
2023/10/02 02:01:46;;;;;;;14.80;5.47;;;;;;;25.94;49.82;102026.66;5026571;28;20029;-71
2023/10/02 02:04:14;;;;;;;13.63;5.43;;;;;;;25.67;50.09;102023.72;5029592;28;20560;-71
2023/10/02 02:06:51;;;;;;;15.20;5.32;;;;;;;25.84;50.19;102026.31;5010070;28;20029;-71
2023/10/02 02:09:23;;;;;;;17.67;5.82;;;;;;;25.73;50.54;102028.69;5011387;28;20030;-71
2023/10/02 02:12:05;;;;;;;16.75;5.85;;;;;;;25.81;50.02;102015.75;5019809;28;20104;-71
2023/10/02 02:14:49;;;;;;;17.45;6.15;;;;;;;25.66;50.46;102012.13;5027939;28;20108;-71
2023/10/02 02:17:18;;;;;;;13.38;5.75;;;;;;;25.98;49.57;102008.56;5028670;28;20033;-71
2023/10/02 02:19:50;;;;;;;15.50;5.47;;;;;;;25.83;49.86;102002.28;5005912;28;20485;-71
2023/10/02 02:22:26;;;;;;;15.10;5.82;;;;;;;26.10;48.97;102002.56;5029791;28;20614;-71
2023/10/02 02:25:00;;;;;;;14.77;5.10;;;;;;;26.12;49.25;102000.66;5023079;28;20128;-71
2023/10/02 02:27:27;;;;;;;14.38;6.07;;;;;;;25.90;49.86;102004.53;4990250;28;20022;-71
2023/10/02 02:29:56;;;;;;;16.20;5.88;;;;;;;26.10;49.18;102005.22;5004955;28;20018;-71
2023/10/02 02:32:36;;;;;;;11.73;4.75;;;;;;;26.10;49.12;102005.22;5009504;28;20032;-71
2023/10/02 02:35:03;;;;;;;12.93;4.95;;;;;;;25.83;49.06;102004.94;5009303;28;20033;-71
2023/10/02 02:37:28;;;;;;;13.07;5.00;;;;;;;26.04;48.99;102006.44;5010671;28;20058;-71
2023/10/02 02:40:21;;;;;;;16.67;6.57;;;;;;;26.03;49.06;102009.22;4991255;28;20628;-71
2023/10/02 02:42:41;;;;;;;15.27;5.10;;;;;;;26.10;48.80;101999.88;5010291;28;20026;-71
2023/10/02 02:45:24;;;;;;;15.07;6.03;;;;;;;26.11;48.72;102001.59;4993846;28;20379;-71
2023/10/02 02:47:54;;;;;;;14.48;5.53;;;;;;;26.06;48.24;102004.56;4993771;28;20079;-71
2023/10/02 02:50:28;;;;;;;12.65;5.80;;;;;;;25.95;48.52;102001.56;4991369;28;20026;-71
2023/10/02 02:55:38;;;;;;;12.38;5.10;;;;;;;25.95;48.71;102012.28;5010145;28;20080;-71
2023/10/02 02:58:06;;;;;;;11.73;5.07;;;;;;;25.68;49.22;102014.72;5008646;28;20029;-71
2023/10/02 03:00:35;;;;;;;17.10;5.78;;;;;;;25.90;48.71;102009.03;5009458;28;20033;-71
2023/10/02 03:03:02;;;;;;;14.98;5.88;;;;;;;26.06;48.51;102014.41;5024859;28;20397;-71
2023/10/02 03:05:41;;;;;;;16.65;6.05;;;;;;;25.78;49.09;102010.56;4999363;28;20501;-71
2023/10/02 03:08:08;;;;;;;14.48;5.70;;;;;;;25.56;49.79;102011.75;5008387;28;20037;-71
2023/10/02 03:10:37;;;;;;;10.88;4.72;;;;;;;25.76;49.35;102009.81;5008080;28;20026;-71
2023/10/02 03:13:03;;;;;;;13.13;5.97;;;;;;;25.83;48.88;102008.50;4991751;28;20022;-71
2023/10/02 03:15:47;;;;;;;19.33;6.28;;;;;;;25.55;50.00;102015.41;4991158;28;20069;-70
2023/10/02 03:18:23;;;;;;;13.68;5.07;;;;;;;25.94;48.61;102010.59;5009267;28;20490;-71
2023/10/02 03:20:52;;;;;;;12.73;4.53;;;;;;;25.91;48.47;102011.63;4992239;28;20250;-71
2023/10/02 03:23:18;;;;;;;13.02;5.60;;;;;;;25.74;49.48;102007.19;5012215;28;20053;-71
2023/10/02 03:25:47;;;;;;;15.77;5.20;;;;;;;25.73;49.54;102007.28;5010418;28;20114;-71
2023/10/02 03:28:28;;;;;;;15.40;5.95;;;;;;;25.35;50.19;102007.59;5026574;28;20029;-71
2023/10/02 03:30:57;;;;;;;15.00;5.30;;;;;;;25.70;49.32;102002.97;5033590;28;20025;-71
2023/10/02 03:33:25;;;;;;;11.75;6.05;;;;;;;25.47;49.76;102006.06;5034809;28;20028;-71
2023/10/02 03:35:58;;;;;;;11.30;4.85;;;;;;;25.46;50.44;102005.19;5033289;28;20397;-71
2023/10/02 03:38:29;;;;;;;;;;;;;;;25.52;49.82;101999.50;5035633;28;20409;-71
2023/10/02 03:40:58;;;;;;;13.48;4.68;;;;;;;25.46;50.38;101997.16;5015339;28;20399;-71
2023/10/02 03:43:43;;;;;;;14.50;5.20;;;;;;;25.42;50.39;101995.59;5017683;28;20399;-71
2023/10/02 03:46:15;;;;;;;14.73;5.53;;;;;;;25.78;49.23;101988.31;5033249;28;20552;-71
2023/10/02 03:48:41;;;;;;;12.60;5.25;;;;;;;25.46;50.22;101994.50;5035218;28;20021;-71
2023/10/02 03:51:07;;;;;;;11.23;4.97;;;;;;;25.82;49.20;101997.88;5016177;28;20464;-71
2023/10/02 03:53:34;;;;;;;13.70;5.38;;;;;;;25.63;49.50;101990.03;5035241;28;20025;-71
2023/10/02 03:58:50;;;;;;;16.10;5.75;;;;;;;25.47;50.02;101998.91;5015966;28;20032;-71
2023/10/02 04:01:29;;;;;;;15.05;5.55;;;;;;;25.56;49.49;101995.69;5007589;28;20076;-71
2023/10/02 04:06:42;;;;;;;16.35;5.90;;;;;;;25.13;51.10;101992.66;5036284;28;20037;-71
2023/10/02 04:11:48;;;;;;;16.63;6.15;;;;;;;24.42;53.09;101974.91;5034121;28;20048;-71
2023/10/02 04:14:17;;;;;;;13.02;5.45;;;;;;;24.44;52.80;101964.13;5033237;28;20025;-71
2023/10/02 04:16:59;;;;;;;12.95;5.20;;;;;;;24.86;52.13;101961.06;5034903;28;20025;-71
2023/10/02 04:19:25;;;;;;;15.45;5.38;;;;;;;24.96;51.63;101958.78;5017644;28;20017;-71
2023/10/02 04:21:57;;;;;;;15.48;5.38;;;;;;;25.14;51.69;101953.41;5034146;28;20493;-71
2023/10/02 04:24:23;;;;;;;13.68;5.63;;;;;;;24.73;51.95;101957.34;5035434;28;20104;-71
2023/10/02 04:26:54;;;;;;;16.98;5.00;;;;;;;25.12;51.31;101961.50;5017555;28;20071;-71
2023/10/02 04:29:26;;;;;;;9.00;4.50;;;;;;;25.13;51.32;101963.25;5032897;28;20658;-71
2023/10/02 04:32:12;;;;;;;14.40;5.47;;;;;;;24.98;51.65;101961.41;5033647;28;20036;-71
2023/10/02 04:34:46;;;;;;;13.02;5.35;;;;;;;25.19;51.28;101965.56;5035731;28;20021;-71
2023/10/02 04:37:22;;;;;;;19.38;6.57;;;;;;;25.42;50.45;101959.94;5032296;28;20094;-71
2023/10/02 04:40:13;;;;;;;16.98;6.68;;;;;;;25.25;50.97;101967.03;5017423;28;20087;-71
2023/10/02 04:45:26;;;;;;;13.48;5.97;;;;;;;25.07;51.75;101968.91;5029990;28;20045;-71
2023/10/02 04:47:55;;;;;;;15.18;6.18;;;;;;;24.65;52.09;101964.91;5013306;28;20477;-71
2023/10/02 04:53:15;;;;;;;14.70;5.03;;;;;;;24.58;52.97;101963.44;5031373;28;20545;-71
2023/10/02 04:55:41;;;;;;;14.05;5.72;;;;;;;24.97;51.21;101970.34;5032825;28;20029;-71
2023/10/02 04:58:14;;;;;;;16.88;5.57;;;;;;;25.05;50.75;101970.81;5014143;28;20112;-71
2023/10/02 05:03:25;;;;;;;11.82;5.25;;;;;;;25.19;51.02;101978.94;5031967;28;20071;-71
2023/10/02 05:05:55;;;;;;;14.82;5.53;;;;;;;25.36;50.50;101982.56;5012186;28;20045;-70
2023/10/02 05:08:33;;;;;;;15.73;6.18;;;;;;;25.58;49.90;101982.22;5009766;28;20041;-73
2023/10/02 05:11:23;;;;;;;13.88;5.85;;;;;;;25.29;50.40;101975.78;5010767;28;20040;-70
2023/10/02 05:13:59;;;;;;;15.52;5.28;;;;;;;25.61;49.62;101976.72;5013946;28;20045;-72
2023/10/02 05:16:38;;;;;;;15.02;5.93;;;;;;;25.49;49.93;101972.91;5027327;28;20141;-72
2023/10/02 05:19:06;;;;;;;15.10;5.80;;;;;;;25.54;49.81;101970.84;5026963;28;20083;-72
2023/10/02 05:21:39;;;;;;;18.17;6.32;;;;;;;25.56;49.97;101971.59;5026608;28;20075;-72
2023/10/02 05:24:07;;;;;;;14.07;5.35;;;;;;;25.51;49.52;101981.72;5011709;28;20073;-72
2023/10/02 05:26:34;;;;;;;14.73;6.43;;;;;;;25.69;49.54;101982.50;5032284;28;20084;-72
2023/10/02 05:29:06;;;;;;;13.90;5.03;;;;;;;25.73;49.08;101981.41;5028965;28;20128;-72
2023/10/02 05:31:36;;;;;;;15.75;6.25;;;;;;;25.63;49.67;101985.53;5026499;28;20026;-72
2023/10/02 05:34:24;;;;;;;12.40;5.57;;;;;;;25.77;49.35;101981.22;5006970;28;20029;-72
2023/10/02 05:39:39;;;;;;;14.48;5.05;;;;;;;25.79;49.16;101982.84;5030829;28;20044;-72
2023/10/02 05:42:13;;;;;;;13.05;5.75;;;;;;;25.64;49.44;101984.59;5012832;28;20021;-72
2023/10/02 05:44:39;;;;;;;15.02;5.25;;;;;;;25.58;49.26;101974.19;5012367;28;20057;-72
2023/10/02 05:47:05;;;;;;;12.85;4.82;;;;;;;25.63;49.33;101987.34;5012709;28;20052;-72
2023/10/02 05:49:31;;;;;;;13.93;5.53;;;;;;;25.69;48.94;101987.00;5027275;28;20026;-72
2023/10/02 05:51:56;;;;;;;13.38;4.63;;;;;;;25.56;49.62;101986.81;5013383;28;20033;-72
2023/10/02 05:54:26;;;;;;;13.60;4.65;;;;;;;25.61;49.64;101997.25;5029385;28;20409;-71
2023/10/02 05:57:08;;;;;;;19.95;5.68;;;;;;;25.55;50.10;101999.34;5026532;28;20466;-72
2023/10/02 05:59:48;;;;;;;14.73;5.38;;;;;;;25.60;50.09;101995.56;5027978;28;20048;-72
2023/10/02 06:02:19;;;;;;;20.30;6.10;;;;;;;25.48;50.43;101997.94;5028105;28;20037;-72
2023/10/02 06:04:48;;;;;;;19.20;5.95;;;;;;;25.73;50.16;102007.28;5028509;28;20448;-72
2023/10/02 06:08:00;;;;;;;11.57;4.78;;;;;;;25.76;49.81;102016.97;5024874;28;20037;-72
2023/10/02 06:10:24;;;;;;;15.00;5.10;;;;;;;25.93;49.69;102010.69;5002742;28;20033;-72
2023/10/02 06:13:02;;;;;;;14.25;5.65;;;;;;;25.76;50.31;102011.59;5009629;28;20038;-72
2023/10/02 06:15:48;;;;;;;14.80;5.95;;;;;;;25.65;50.23;102015.75;5018723;28;20040;-72
2023/10/02 06:18:27;;;;;;;19.23;5.55;;;;;;;25.72;50.34;102010.94;5025113;28;20033;-71
2023/10/02 06:21:00;;;;;;;13.30;4.70;;;;;;;25.76;50.23;102004.47;5028163;28;20109;-71
2023/10/02 06:23:29;;;;;;;13.70;4.97;;;;;;;25.63;50.44;102011.44;5030111;28;20049;-71
2023/10/02 06:25:58;;;;;;;15.13;5.47;;;;;;;25.60;50.86;102006.25;5028411;28;20021;-71
2023/10/02 06:28:27;;;;;;;11.65;4.95;;;;;;;25.57;50.62;102015.31;5012309;28;20120;-71
2023/10/02 06:30:54;;;;;;;15.63;5.82;;;;;;;24.95;52.75;102009.66;5015109;28;20033;-71
2023/10/02 06:33:21;;;;;;;13.52;5.90;;;;;;;25.66;51.20;102005.91;5000310;28;20030;-72
2023/10/02 06:35:56;;;;;;;12.75;5.13;;;;;;;25.60;51.39;102016.97;5009801;28;20076;-71
2023/10/02 06:38:25;;;;;;;17.42;5.82;;;;;;;25.89;50.41;102028.72;5012855;28;20036;-72
2023/10/02 06:40:57;;;;;;;15.63;6.47;;;;;;;25.79;51.03;102012.31;4986555;28;20125;-72
2023/10/02 06:43:30;;;;;;;13.53;5.40;;;;;;;26.17;49.68;102014.66;5018976;28;20060;-71
2023/10/02 06:46:09;;;;;;;;;;;;;;;26.29;49.50;102021.13;5025663;28;20469;-70
2023/10/02 06:48:35;;;;;;;16.90;5.90;;;;;;;26.40;49.36;102017.81;5025218;28;20027;-71
2023/10/02 06:51:04;;;;;;;17.40;5.40;;;;;;;26.37;49.23;102023.34;5018323;28;20045;-71
2023/10/02 06:53:30;;;;;;;13.13;6.00;;;;;;;26.23;50.03;102021.47;5009326;28;20033;-70
2023/10/02 06:56:07;;;;;;;11.32;6.15;;;;;;;25.96;50.30;102029.25;5009538;28;20033;-70
2023/10/02 06:58:48;;;;;;;13.90;5.97;;;;;;;26.21;49.93;102013.53;5027850;28;20056;-71
2023/10/02 07:01:18;;;;;;;14.88;5.70;;;;;;;26.11;50.16;102023.03;5011071;28;20021;-71
2023/10/02 07:03:50;;;;;;;13.13;5.68;;;;;;;25.61;51.17;102016.88;5011497;28;20064;-71
2023/10/02 07:06:19;;;;;;;14.13;6.22;;;;;;;24.45;55.08;102016.66;5010177;28;20040;-71
2023/10/02 07:09:29;;;;;;;16.42;5.78;;;;;;;25.76;51.79;102023.19;5010558;28;20025;-70
2023/10/02 07:11:44;;;;;;;14.73;5.70;;;;;;;25.65;52.05;102021.13;5023871;28;20464;-71
2023/10/02 07:14:10;;;;;;;14.60;6.20;;;;;;;25.50;52.42;102027.28;5022499;28;20046;-71
2023/10/02 07:16:36;;;;;;;15.38;5.57;;;;;;;26.28;50.92;102029.25;5027110;28;20035;-71
2023/10/02 07:19:04;;;;;;;20.35;5.90;;;;;;;25.55;53.18;102039.50;5023068;28;20486;-71
2023/10/02 07:21:30;;;;;;;23.10;5.82;;;;;;;26.62;50.59;102025.44;5007841;28;20404;-71
2023/10/02 07:24:27;;;;;;;13.57;5.32;;;;;;;26.99;48.89;102030.47;4991712;28;20508;-71
2023/10/02 07:26:53;;;;;;;14.45;6.13;;;;;;;26.61;50.48;102030.91;5010283;28;20025;-71
2023/10/02 07:29:19;;;;;;;13.02;5.90;;;;;;;26.31;50.92;102035.31;5007565;28;20067;-71
2023/10/02 07:31:45;;;;;;;14.10;5.95;;;;;;;26.37;51.10;102034.94;5002734;28;20037;-71
2023/10/02 07:34:15;;;;;;;19.55;5.80;;;;;;;25.57;53.42;102040.25;5023574;28;20032;-70
2023/10/02 07:36:44;;;;;;;15.77;6.05;;;;;;;26.61;51.11;102030.91;5007478;28;20025;-70
2023/10/02 07:42:00;;;;;;;20.23;7.47;;;;;;;26.46;51.60;102057.66;5022510;28;20179;-71
2023/10/02 07:44:36;;;;;;;19.77;6.05;;;;;;;26.03;53.03;102062.78;5024892;28;20451;-71
2023/10/02 07:47:08;;;;;;;12.85;5.80;;;;;;;26.61;51.63;102058.56;5027156;28;20064;-71
2023/10/02 07:49:34;;;;;;;19.45;7.30;;;;;;;27.31;50.30;102062.50;5007844;28;20022;-71
2023/10/02 07:52:00;;;;;;;14.30;6.43;;;;;;;25.59;54.13;102069.63;5022038;28;20091;-71
2023/10/02 07:54:44;;;;;;;18.23;6.35;;;;;;;26.95;51.70;102053.91;5009282;28;20073;-71
2023/10/02 07:57:13;;;;;;;13.13;5.82;;;;;;;27.50;49.39;102059.56;5010761;28;20137;-71
2023/10/02 07:59:43;;;;;;;12.18;5.93;;;;;;;28.05;48.48;102063.25;5024047;28;20029;-71
2023/10/02 08:02:22;;;;;;;14.35;6.00;;;;;;;27.39;50.13;102061.06;5008152;28;20098;-71
2023/10/02 08:04:51;;;;;;;14.98;6.43;;;;;;;27.70;48.96;102055.63;5026158;28;20045;-71
2023/10/02 08:07:17;;;;;;;15.63;5.65;;;;;;;27.95;48.89;102054.06;5029211;28;20037;-71
2023/10/02 08:09:47;;;;;;;15.13;6.35;;;;;;;27.46;49.80;102056.19;5010637;28;20067;-71
2023/10/02 08:12:29;;;;;;;16.45;5.80;;;;;;;28.49;47.09;102054.06;5013443;28;20030;-71
2023/10/02 08:15:00;;;;;;;20.00;6.80;;;;;;;29.01;46.13;102057.75;5027565;28;20039;-71
2023/10/02 08:18:00;;;;;;;19.80;6.25;;;;;;;28.14;47.77;102057.28;5027599;28;20041;-71
2023/10/02 08:20:31;;;;;;;21.17;7.13;;;;;;;28.24;48.30;102058.41;5032471;28;20048;-71
2023/10/02 08:22:57;;;;;;;;;;;;;;;27.64;49.21;102058.69;5015217;28;20025;-71
2023/10/02 08:25:23;;;;;;;15.82;5.80;;;;;;;26.95;51.86;102058.44;5031423;28;19990;-71
2023/10/02 08:27:57;;;;;;;16.20;6.53;;;;;;;27.60;50.26;102060.69;5028589;28;20025;-71
2023/10/02 08:30:28;;;;;;;20.30;7.07;;;;;;;28.02;48.79;102058.09;4999487;28;20473;-70
2023/10/02 08:33:18;;;;;;;24.77;7.25;;;;;;;28.45;48.59;102049.88;5013796;28;20385;-71
2023/10/02 08:35:46;;;;;;;15.50;6.65;;;;;;;28.24;48.53;102054.84;5014736;28;20048;-71
2023/10/02 08:38:24;;;;;;;20.10;7.20;;;;;;;29.21;46.83;102047.41;5030418;28;20040;-71
2023/10/02 08:41:03;;;;;;;17.77;7.47;;;;;;;27.92;48.83;102052.41;5014022;28;20032;-71
2023/10/02 08:43:32;;;;;;;17.50;7.13;;;;;;;28.32;48.36;102048.97;5032293;28;20028;-71
2023/10/02 08:45:58;;;;;;;17.30;7.20;;;;;;;29.35;46.71;102038.44;5030256;28;20091;-71
2023/10/02 08:48:25;;;;;;;16.10;6.80;;;;;;;28.92;47.01;102039.56;5031157;28;20057;-71
2023/10/02 08:50:57;;;;;;;20.38;7.50;;;;;;;28.23;48.91;102034.31;5029300;28;20022;-71
2023/10/02 08:53:23;;;;;;;16.30;6.50;;;;;;;28.82;47.65;102047.41;5031482;28;20041;-71
2023/10/02 08:56:24;;;;;;;20.02;7.47;;;;;;;28.43;49.00;102041.06;5013252;28;20029;-71
2023/10/02 09:01:34;;;;;;;17.17;6.53;;;;;;;29.89;45.76;102054.28;5030615;28;20136;-71
2023/10/02 09:04:22;;;;;;;21.40;8.05;;;;;;;30.26;44.99;102051.53;5013733;28;20076;-71
2023/10/02 09:06:58;;;;;;;18.17;7.38;;;;;;;28.60;48.10;102054.22;5029421;28;20084;-71
2023/10/02 09:09:35;;;;;;;21.60;7.57;;;;;;;28.87;48.23;102050.63;5026697;28;20037;-70
2023/10/02 09:12:03;;;;;;;19.42;7.32;;;;;;;29.49;46.09;102038.28;5025083;28;20033;-70
2023/10/02 09:17:19;;;;;;;19.58;7.72;;;;;;;29.17;46.54;102037.84;5012148;28;20442;-71
2023/10/02 09:19:53;;;;;;;24.80;7.47;;;;;;;28.38;48.29;102032.44;5028809;28;20072;-71
2023/10/02 09:22:20;;;;;;;22.50;7.47;;;;;;;30.02;45.47;102034.50;5030220;28;20513;-71
2023/10/02 09:24:58;;;;;;;18.33;7.25;;;;;;;29.91;46.38;102033.47;5031968;28;20072;-71
2023/10/02 09:27:38;;;;;;;18.50;7.13;;;;;;;31.09;43.28;102033.59;5029232;28;20466;-71
2023/10/02 09:32:47;;;;;;;16.90;7.38;;;;;;;30.27;44.56;102031.69;5031484;28;20044;-73
2023/10/02 09:35:28;;;;;;;19.05;7.07;;;;;;;30.52;44.14;102029.03;5029518;28;20029;-72
2023/10/02 09:37:56;;;;;;;19.77;6.85;;;;;;;30.89;43.68;102015.38;5013799;28;20033;-72
2023/10/02 09:40:26;;;;;;;25.58;8.48;;;;;;;30.57;43.29;102027.69;5009565;28;20057;-73
2023/10/02 09:43:07;;;;;;;26.60;7.82;;;;;;;30.73;44.18;102026.50;5023458;28;20033;-72
2023/10/02 09:45:37;;;;;;;14.90;6.63;;;;;;;30.68;43.82;102012.50;5013613;28;20120;-72
2023/10/02 09:48:46;;;;;;;20.60;7.57;;;;;;;31.39;42.37;102020.47;5031141;28;20029;-72
2023/10/02 09:50:54;;;;;;;17.55;6.95;;;;;;;30.95;43.47;101999.56;5029065;28;20034;-73
2023/10/02 09:53:25;;;;;;;20.83;7.32;;;;;;;30.21;44.37;102004.34;5018383;28;20123;-73
2023/10/02 09:56:14;;;;;;;18.80;7.05;;;;;;;30.48;44.65;102005.97;5010244;28;20071;-72
2023/10/02 09:59:12;;;;;;;18.77;6.35;;;;;;;30.52;44.48;102002.06;5013821;28;20035;-73
2023/10/02 10:01:38;;;;;;;20.27;7.53;;;;;;;29.56;46.58;102009.09;5029193;28;20504;-73
2023/10/02 10:04:31;;;;;;;17.60;6.72;;;;;;;30.25;45.10;102009.41;5008582;28;20025;-73
2023/10/02 10:07:09;;;;;;;18.15;6.82;;;;;;;30.54;44.18;102017.16;5010454;28;20052;-73
2023/10/02 10:09:51;;;;;;;15.57;5.68;;;;;;;30.41;45.18;102010.94;5008799;28;20465;-73
2023/10/02 10:12:21;;;;;;;16.70;6.57;;;;;;;30.24;45.43;102001.41;5011701;28;20030;-73
2023/10/02 10:14:54;;;;;;;13.02;6.10;;;;;;;29.43;46.52;102003.72;5030965;28;20034;-74
2023/10/02 10:17:21;;;;;;;19.00;6.15;;;;;;;30.41;45.16;102008.22;5026894;28;20166;-73
2023/10/02 10:20:09;;;;;;;22.45;7.38;;;;;;;30.14;45.57;102014.72;5008756;28;20041;-72
2023/10/02 10:22:39;;;;;;;14.23;5.85;;;;;;;29.91;46.14;102011.91;5030463;28;20056;-73
2023/10/02 10:25:32;;;;;;;19.85;6.55;;;;;;;29.43;47.34;102003.72;5028376;28;20060;-73
2023/10/02 10:27:59;;;;;;;15.35;6.07;;;;;;;29.97;46.47;102001.66;5020924;28;20045;-73
2023/10/02 10:30:25;;;;;;;16.40;6.75;;;;;;;30.00;45.67;102001.44;5015847;28;20478;-72
2023/10/02 10:35:40;;;;;;;14.88;6.25;;;;;;;29.50;47.70;101999.63;5029907;28;20487;-73
2023/10/02 10:38:36;;;;;;;22.27;6.63;;;;;;;29.66;47.48;101991.25;5030348;28;20033;-72
2023/10/02 10:41:31;;;;;;;15.27;5.38;;;;;;;30.70;45.14;102002.47;5010374;28;20029;-72
2023/10/02 10:43:56;;;;;;;17.77;6.22;;;;;;;30.42;45.85;101997.31;5020332;28;20037;-75
2023/10/02 10:46:27;;;;;;;16.77;6.18;;;;;;;30.72;44.64;101995.09;5007724;28;20030;-73
2023/10/02 10:49:08;;;;;;;15.63;7.00;;;;;;;31.04;44.35;101997.16;5023364;28;20067;-75
2023/10/02 10:51:38;;;;;;;14.35;5.78;;;;;;;30.57;45.26;101995.31;5010549;28;20116;-76
2023/10/02 10:54:12;;;;;;;13.35;6.25;;;;;;;30.39;44.50;101991.28;5008014;28;20118;-74
2023/10/02 10:56:44;;;;;;;14.50;5.32;;;;;;;30.39;44.82;101997.56;5023167;28;20120;-74
2023/10/02 10:59:21;;;;;;;12.55;6.15;;;;;;;30.91;43.95;101999.91;5008883;28;20032;-74
2023/10/02 11:04:34;;;;;;;13.63;5.65;;;;;;;30.71;44.02;102006.88;5022105;28;20099;-74
2023/10/02 11:07:03;;;;;;;18.70;6.00;;;;;;;30.56;44.83;101999.00;5027217;28;20029;-74
2023/10/02 11:09:32;;;;;;;14.35;5.82;;;;;;;30.63;44.44;101994.81;5008862;28;20036;-73
2023/10/02 11:11:58;;;;;;;19.85;6.43;;;;;;;30.57;44.56;101989.94;5005425;28;20029;-75
2023/10/02 11:14:35;;;;;;;17.02;6.43;;;;;;;29.83;46.85;101983.78;5011551;28;20029;-74
2023/10/02 11:17:04;;;;;;;14.60;5.43;;;;;;;30.37;45.97;101990.56;5023542;28;20103;-75
2023/10/02 11:22:20;;;;;;;16.38;6.07;;;;;;;31.23;43.35;101986.59;5027273;28;20048;-74
2023/10/02 11:24:52;;;;;;;15.25;6.45;;;;;;;30.99;43.75;101988.53;5026603;28;20429;-74
2023/10/02 11:27:18;;;;;;;15.52;6.38;;;;;;;30.05;45.20;101983.94;5027674;28;20053;-75
2023/10/02 11:30:01;;;;;;;16.40;6.93;;;;;;;31.16;42.77;101987.19;5012235;28;20512;-75
2023/10/02 11:32:48;;;;;;;;;;;;;;;32.32;41.95;101972.38;5030534;28;20529;-75
2023/10/02 11:35:14;;;;;;;13.38;5.03;;;;;;;30.61;44.60;101986.00;5011199;28;19920;-75
2023/10/02 11:37:47;;;;;;;12.70;5.00;;;;;;;31.46;43.56;101971.25;5020811;28;20332;-75
2023/10/02 11:40:13;;;;;;;15.18;5.85;;;;;;;31.88;42.39;101973.25;5027069;28;20022;-75
2023/10/02 11:42:39;;;;;;;14.50;5.88;;;;;;;32.39;41.80;101960.03;5029397;28;20102;-75
2023/10/02 11:45:04;;;;;;;15.63;6.03;;;;;;;31.80;42.24;101962.22;5025402;28;20125;-74
2023/10/02 11:47:31;;;;;;;14.50;5.78;;;;;;;32.04;42.42;101963.84;4999790;28;20032;-74
2023/10/02 11:50:00;;;;;;;15.68;6.05;;;;;;;32.33;41.58;101955.13;5001232;28;20044;-73
2023/10/02 11:52:25;;;;;;;13.90;5.28;;;;;;;32.92;39.94;101950.94;5030614;28;20042;-74
2023/10/02 11:54:51;;;;;;;19.60;5.97;;;;;;;31.19;43.47;101952.72;5020552;28;20036;-73
2023/10/02 11:57:16;;;;;;;13.00;5.72;;;;;;;31.35;43.42;101946.91;5031406;28;20374;-73
2023/10/02 11:59:43;;;;;;;10.75;4.97;;;;;;;30.28;45.44;101946.28;5015805;28;20381;-74
2023/10/02 12:02:11;;;;;;;18.45;5.65;;;;;;;30.71;44.33;101953.78;5011543;28;20044;-70
2023/10/02 12:04:40;;;;;;;11.60;5.47;;;;;;;31.39;43.69;101943.00;5028477;28;20029;-71
2023/10/02 12:07:07;;;;;;;13.02;5.00;;;;;;;32.71;40.86;101946.44;5014509;28;20560;-71
2023/10/02 12:09:33;;;;;;;15.20;6.25;;;;;;;31.55;42.71;101942.59;5011967;28;20102;-70
2023/10/02 12:11:59;;;;;;;18.88;6.32;;;;;;;32.02;41.92;101938.81;5026983;28;20040;-69
2023/10/02 12:14:30;;;;;;;17.95;5.78;;;;;;;32.85;40.64;101928.13;5027939;28;20033;-70
2023/10/02 12:16:59;;;;;;;13.48;4.95;;;;;;;33.27;40.00;101931.59;5032128;28;20033;-70
2023/10/02 12:19:35;;;;;;;14.82;5.43;;;;;;;32.05;41.76;101938.53;5015583;28;20032;-70
2023/10/02 12:22:05;;;;;;;15.90;5.10;;;;;;;32.85;40.94;101926.31;5031951;28;20040;-72
2023/10/02 12:24:31;;;;;;;15.85;5.40;;;;;;;32.51;40.72;101929.22;5009626;28;20042;-70
2023/10/02 12:26:56;;;;;;;12.57;5.38;;;;;;;32.01;42.04;101916.31;5011669;28;20044;-70